Аэропорт: Ленкорань. Ленкорань

ICAO: UBBL

METAR:
2019-09-21 16:00:00
UBBL 211600Z 26005KT 9000 -RA OVC022 19/17 Q1011 R33/CLRD// NOSIG RMK MT OP
METAR:
2019-09-21 11:27:00
TAF UBBL 211127Z 2112/2212 06014KT 9999 BKN030 TX24/2112Z TN18/2202Z TEMPO 2112/2206 03016G26KT 6000 -RA BKN010 OVC020